createdAt,value
2022-11-30T00:01:18.629Z,2.40
2022-11-30T00:03:46.260Z,2.40
2022-11-30T00:06:15.947Z,2.40
2022-11-30T00:08:42.922Z,2.40
2022-11-30T00:11:09.832Z,2.40
2022-11-30T00:13:36.546Z,2.40
2022-11-30T00:16:03.584Z,2.40
2022-11-30T00:18:30.411Z,3.10
2022-11-30T00:21:01.277Z,3.20
2022-11-30T00:23:35.816Z,2.40
2022-11-30T00:26:04.752Z,2.40
2022-11-30T00:28:32.876Z,2.40
2022-11-30T00:31:08.777Z,2.40
2022-11-30T00:33:37.688Z,2.40
2022-11-30T00:36:11.088Z,2.40
2022-11-30T00:38:37.756Z,2.40
2022-11-30T00:41:04.654Z,2.30
2022-11-30T00:43:31.809Z,2.40
2022-11-30T00:45:58.639Z,2.30
2022-11-30T00:48:25.773Z,2.40
2022-11-30T00:50:52.869Z,3.20
2022-11-30T00:53:20.791Z,2.40
2022-11-30T00:55:48.366Z,2.30
2022-11-30T00:58:15.828Z,2.30
2022-11-30T01:00:43.105Z,2.30
2022-11-30T01:03:10.451Z,2.30
2022-11-30T01:05:37.426Z,2.30
2022-11-30T01:08:06.492Z,2.30
2022-11-30T01:10:34.701Z,2.30
2022-11-30T01:13:01.956Z,2.30
2022-11-30T01:15:30.385Z,2.30
2022-11-30T01:17:59.954Z,2.30
2022-11-30T01:20:26.703Z,2.30
2022-11-30T01:22:54.572Z,2.30
2022-11-30T01:25:21.336Z,2.30
2022-11-30T01:27:52.022Z,2.30
2022-11-30T01:30:18.867Z,2.30
2022-11-30T01:32:45.602Z,2.30
2022-11-30T01:35:12.506Z,2.20
2022-11-30T01:37:39.297Z,2.30
2022-11-30T01:40:07.053Z,2.30
2022-11-30T01:42:34.000Z,2.30
2022-11-30T01:45:02.391Z,2.30
2022-11-30T01:47:33.228Z,2.30
2022-11-30T01:50:23.287Z,2.30
2022-11-30T01:52:56.282Z,2.30
2022-11-30T01:55:37.336Z,2.30
2022-11-30T01:58:08.081Z,2.30
2022-11-30T02:00:35.336Z,2.20
2022-11-30T02:03:20.023Z,2.20
2022-11-30T02:05:46.997Z,2.20
2022-11-30T02:08:14.169Z,2.20
2022-11-30T02:10:44.410Z,2.20
2022-11-30T02:13:47.774Z,2.20
2022-11-30T02:16:27.099Z,2.20
2022-11-30T02:19:11.537Z,2.20
2022-11-30T02:21:52.892Z,2.10
2022-11-30T02:24:40.845Z,2.10
2022-11-30T02:27:43.380Z,2.10
2022-11-30T02:30:14.660Z,2.10
2022-11-30T02:33:12.125Z,2.00
2022-11-30T02:35:54.318Z,2.00
2022-11-30T02:38:23.975Z,1.90
2022-11-30T02:40:50.759Z,1.90
2022-11-30T02:43:20.005Z,1.90
2022-11-30T02:45:54.043Z,2.50
2022-11-30T02:48:28.442Z,1.90
2022-11-30T02:51:00.673Z,1.80
2022-11-30T02:53:27.574Z,1.80
2022-11-30T02:55:54.866Z,1.80
2022-11-30T02:58:22.223Z,1.80
2022-11-30T03:00:49.870Z,1.70
2022-11-30T03:03:16.559Z,3.50
2022-11-30T03:05:43.353Z,1.60
2022-11-30T03:08:10.472Z,1.70
2022-11-30T03:10:37.133Z,1.70
2022-11-30T03:13:03.769Z,1.70
2022-11-30T03:15:30.576Z,1.70
2022-11-30T03:18:01.032Z,1.70
2022-11-30T03:20:27.685Z,1.60
2022-11-30T03:22:54.333Z,1.60
2022-11-30T03:25:21.236Z,1.60
2022-11-30T03:27:47.885Z,2.70
2022-11-30T03:30:14.637Z,1.50
2022-11-30T03:32:41.293Z,1.50
2022-11-30T03:35:08.357Z,1.60
2022-11-30T03:37:35.077Z,1.50
2022-11-30T03:40:05.286Z,1.40
2022-11-30T03:42:31.961Z,1.50
2022-11-30T03:44:58.609Z,1.40
2022-11-30T03:47:25.277Z,1.40
2022-11-30T03:49:51.965Z,1.40
2022-11-30T03:52:18.629Z,1.40
2022-11-30T03:54:45.728Z,1.40
2022-11-30T03:57:12.637Z,1.40
2022-11-30T03:59:39.341Z,1.40
2022-11-30T04:02:06.400Z,3.80
2022-11-30T04:04:33.206Z,1.30
2022-11-30T04:06:59.874Z,1.30
2022-11-30T04:09:26.564Z,1.30
2022-11-30T04:11:53.330Z,1.30
2022-11-30T04:14:19.981Z,3.20
2022-11-30T04:16:46.653Z,1.30
2022-11-30T04:19:13.316Z,1.30
2022-11-30T04:21:39.990Z,1.30
2022-11-30T04:24:07.369Z,1.30
2022-11-30T04:26:34.032Z,1.30
2022-11-30T04:29:04.339Z,1.30
2022-11-30T04:31:31.430Z,1.30
2022-11-30T04:33:58.186Z,1.20
2022-11-30T04:36:25.016Z,1.30
2022-11-30T04:38:51.737Z,1.20
2022-11-30T04:41:18.476Z,1.20
2022-11-30T04:43:45.255Z,1.20
2022-11-30T04:46:12.295Z,1.10
2022-11-30T04:48:39.009Z,1.20
2022-11-30T04:51:07.875Z,1.30
2022-11-30T04:53:36.139Z,1.20
2022-11-30T04:56:10.417Z,1.20
2022-11-30T04:58:38.912Z,1.30
2022-11-30T05:01:06.302Z,1.20
2022-11-30T05:03:33.084Z,1.20
2022-11-30T05:05:59.745Z,1.10
2022-11-30T05:08:26.426Z,1.10
2022-11-30T05:10:54.277Z,1.20
2022-11-30T05:13:22.183Z,1.20
2022-11-30T05:15:48.940Z,1.20
2022-11-30T05:18:18.454Z,1.10
2022-11-30T05:20:49.823Z,1.10
2022-11-30T05:23:17.483Z,1.10
2022-11-30T05:25:44.667Z,1.10
2022-11-30T05:28:12.168Z,1.10
2022-11-30T05:30:43.149Z,1.10
2022-11-30T05:33:10.068Z,1.10
2022-11-30T05:35:37.131Z,1.10
2022-11-30T05:38:04.421Z,1.10
2022-11-30T05:40:32.655Z,1.00
2022-11-30T05:43:01.142Z,1.00
2022-11-30T05:45:28.617Z,1.00
2022-11-30T05:47:55.365Z,1.00
2022-11-30T05:50:22.239Z,1.00
2022-11-30T05:52:48.947Z,1.00
2022-11-30T05:55:15.686Z,1.00
2022-11-30T05:57:42.412Z,1.00
2022-11-30T06:00:09.999Z,1.00
2022-11-30T06:02:37.032Z,1.00
2022-11-30T06:05:03.976Z,1.00
2022-11-30T06:07:30.811Z,0.90
2022-11-30T06:09:57.540Z,1.00
2022-11-30T06:12:24.208Z,1.00
2022-11-30T06:14:51.140Z,1.00
2022-11-30T06:17:17.870Z,1.00
2022-11-30T06:19:44.622Z,1.00
2022-11-30T06:22:11.281Z,1.00
2022-11-30T06:24:37.970Z,1.00
2022-11-30T06:27:04.694Z,1.00
2022-11-30T06:29:31.430Z,1.00
2022-11-30T06:31:58.152Z,1.00
2022-11-30T06:34:24.910Z,0.90
2022-11-30T06:36:51.621Z,1.00
2022-11-30T06:39:31.401Z,1.00
2022-11-30T06:42:05.348Z,0.90
2022-11-30T06:44:32.036Z,0.90
2022-11-30T06:46:58.738Z,0.90
2022-11-30T06:49:25.448Z,0.90
2022-11-30T06:51:52.169Z,0.90
2022-11-30T06:54:18.815Z,0.90
2022-11-30T06:56:45.489Z,0.90
2022-11-30T06:59:12.229Z,0.90
2022-11-30T07:01:38.904Z,0.90
2022-11-30T07:04:05.648Z,0.90
2022-11-30T07:06:32.317Z,0.90
2022-11-30T07:08:59.009Z,0.90
2022-11-30T07:11:25.758Z,0.80
2022-11-30T07:13:52.440Z,0.90
2022-11-30T07:16:19.206Z,0.90
2022-11-30T07:18:45.923Z,0.90
2022-11-30T07:21:12.766Z,0.80
2022-11-30T07:23:58.268Z,0.90
2022-11-30T07:26:25.917Z,0.90
2022-11-30T07:28:58.322Z,0.90
2022-11-30T07:31:30.543Z,1.00
2022-11-30T07:33:58.723Z,1.00
2022-11-30T07:36:26.724Z,0.90
2022-11-30T07:38:53.437Z,1.00
2022-11-30T07:41:20.106Z,3.00
2022-11-30T07:43:46.816Z,0.90
2022-11-30T07:46:15.453Z,0.90
2022-11-30T07:48:43.308Z,1.00
2022-11-30T07:51:18.949Z,1.00
2022-11-30T07:53:45.912Z,1.00
2022-11-30T07:56:18.352Z,1.00
2022-11-30T07:58:45.733Z,1.00
2022-11-30T08:01:15.564Z,0.00
2022-11-30T08:03:42.600Z,1.00
2022-11-30T08:06:20.133Z,1.00
2022-11-30T08:08:48.981Z,1.00
2022-11-30T08:11:18.397Z,1.00
2022-11-30T08:13:45.377Z,1.00
2022-11-30T08:16:14.896Z,1.00
2022-11-30T08:18:42.287Z,1.00
2022-11-30T08:21:11.329Z,0.90
2022-11-30T08:23:58.404Z,0.90
2022-11-30T08:26:30.934Z,0.90
2022-11-30T08:28:59.293Z,0.90
2022-11-30T08:31:32.685Z,1.00
2022-11-30T08:34:03.793Z,1.00
2022-11-30T08:36:31.083Z,1.00
2022-11-30T08:38:59.612Z,1.00
2022-11-30T08:41:27.033Z,1.00
2022-11-30T08:43:53.789Z,1.00
2022-11-30T08:49:26.311Z,1.10
2022-11-30T08:54:46.265Z,1.00
2022-11-30T08:57:17.885Z,1.10
2022-11-30T08:59:44.717Z,1.10
2022-11-30T09:02:13.971Z,1.10
2022-11-30T09:04:40.947Z,1.10
2022-11-30T09:07:09.505Z,1.10
2022-11-30T09:09:36.960Z,1.10
2022-11-30T09:12:03.978Z,1.10
2022-11-30T09:14:30.848Z,1.10
2022-11-30T09:16:57.507Z,1.20
2022-11-30T09:19:25.398Z,1.10
2022-11-30T09:21:52.699Z,1.10
2022-11-30T09:24:20.868Z,1.10
2022-11-30T09:26:47.820Z,1.10
2022-11-30T09:29:14.736Z,1.80
2022-11-30T09:31:41.412Z,1.10
2022-11-30T09:34:11.365Z,1.20
2022-11-30T09:36:38.126Z,1.20
2022-11-30T09:39:04.861Z,1.20
2022-11-30T09:41:34.449Z,1.20
2022-11-30T09:44:41.293Z,1.20
2022-11-30T09:47:07.937Z,1.20
2022-11-30T09:49:54.497Z,1.30
2022-11-30T09:52:33.740Z,1.30
2022-11-30T09:55:06.619Z,1.30
2022-11-30T09:58:00.539Z,1.30
2022-11-30T10:00:27.643Z,1.30
2022-11-30T10:02:59.451Z,1.30
2022-11-30T10:06:08.584Z,1.30
2022-11-30T10:08:50.631Z,1.30
2022-11-30T10:11:24.503Z,1.30
2022-11-30T10:14:02.912Z,1.30
2022-11-30T10:16:49.776Z,1.30
2022-11-30T10:19:26.159Z,1.20
2022-11-30T10:22:07.785Z,1.20
2022-11-30T10:24:53.498Z,1.20
2022-11-30T10:27:44.836Z,1.20
2022-11-30T10:30:19.066Z,1.20
2022-11-30T10:32:53.010Z,1.20
2022-11-30T10:35:43.320Z,1.20
2022-11-30T10:38:15.574Z,1.10
2022-11-30T10:41:00.476Z,1.10
2022-11-30T10:43:38.199Z,2.90
2022-11-30T10:46:05.693Z,3.20
2022-11-30T10:48:32.464Z,1.10
2022-11-30T10:51:04.623Z,1.20
2022-11-30T10:53:32.882Z,1.20
2022-11-30T10:56:08.352Z,2.60
2022-11-30T10:58:41.271Z,1.20
2022-11-30T11:01:11.182Z,1.20
2022-11-30T11:03:38.415Z,1.10
2022-11-30T11:06:22.166Z,1.10
2022-11-30T11:08:49.705Z,1.10
2022-11-30T11:11:36.635Z,1.10
2022-11-30T11:14:16.786Z,1.20
2022-11-30T11:17:00.227Z,1.10
2022-11-30T11:19:35.960Z,1.10
2022-11-30T11:22:21.185Z,1.10
2022-11-30T11:24:49.956Z,1.10
2022-11-30T11:27:33.653Z,1.20
2022-11-30T11:30:16.680Z,1.50
2022-11-30T11:33:02.416Z,1.20
2022-11-30T11:36:06.461Z,1.20
2022-11-30T11:38:53.462Z,1.10
2022-11-30T11:41:31.378Z,1.00
2022-11-30T11:43:59.863Z,1.20
2022-11-30T11:46:27.432Z,2.40
2022-11-30T11:49:18.297Z,1.20
2022-11-30T11:51:46.594Z,1.20
2022-11-30T11:54:45.117Z,1.20
2022-11-30T11:57:15.272Z,1.20
2022-11-30T11:59:50.775Z,1.20
2022-11-30T12:02:31.274Z,1.20
2022-11-30T12:05:05.430Z,1.30
2022-11-30T12:07:37.990Z,1.30
2022-11-30T12:10:51.766Z,1.30
2022-11-30T12:13:33.217Z,1.30
2022-11-30T12:16:11.878Z,1.20
2022-11-30T12:19:05.143Z,1.30
2022-11-30T12:21:57.756Z,1.30
2022-11-30T12:24:46.058Z,2.40
2022-11-30T12:27:21.650Z,1.30
2022-11-30T12:30:13.056Z,1.20
2022-11-30T12:32:58.568Z,1.30
2022-11-30T12:35:55.174Z,2.30
2022-11-30T12:38:46.710Z,2.30
2022-11-30T12:41:50.722Z,1.30
2022-11-30T12:44:29.341Z,1.20
2022-11-30T12:47:20.378Z,3.50
2022-11-30T12:50:11.532Z,1.20
2022-11-30T12:52:54.401Z,1.20
2022-11-30T12:56:03.415Z,1.20
2022-11-30T12:58:50.036Z,1.20
2022-11-30T13:01:39.284Z,1.20
2022-11-30T13:04:30.681Z,0.90
2022-11-30T13:07:22.854Z,1.20
2022-11-30T13:09:56.831Z,1.20
2022-11-30T13:12:36.372Z,1.20
2022-11-30T13:15:19.193Z,1.20
2022-11-30T13:17:47.462Z,1.20
2022-11-30T13:20:32.690Z,2.60
2022-11-30T13:23:13.907Z,-0.10
2022-11-30T13:26:07.973Z,1.20
2022-11-30T13:28:41.348Z,1.20
2022-11-30T13:31:25.757Z,1.20
2022-11-30T13:33:55.496Z,1.10
2022-11-30T13:36:44.903Z,1.20
2022-11-30T13:39:14.520Z,1.10
2022-11-30T13:41:50.419Z,0.90
2022-11-30T13:44:38.725Z,1.10
2022-11-30T13:47:16.956Z,1.00
2022-11-30T13:49:44.397Z,1.20
2022-11-30T13:52:24.159Z,1.10
2022-11-30T13:54:54.578Z,1.10
2022-11-30T13:57:27.976Z,1.10
2022-11-30T13:59:55.351Z,1.10
2022-11-30T14:05:18.401Z,1.10
2022-11-30T14:08:05.380Z,1.10
2022-11-30T14:10:36.808Z,1.10
2022-11-30T14:13:14.156Z,1.10
2022-11-30T14:15:41.861Z,1.10
2022-11-30T14:18:08.536Z,1.10
2022-11-30T14:21:01.788Z,1.10
2022-11-30T14:23:46.930Z,1.00
2022-11-30T14:26:16.196Z,1.00
2022-11-30T14:28:57.369Z,1.00
2022-11-30T14:31:33.097Z,1.00
2022-11-30T14:34:12.264Z,0.90
2022-11-30T14:36:44.910Z,0.90
2022-11-30T14:39:33.179Z,0.90
2022-11-30T14:42:00.978Z,0.90
2022-11-30T14:44:28.213Z,0.90
2022-11-30T14:46:55.685Z,1.00
2022-11-30T14:49:24.292Z,1.00
2022-11-30T14:52:02.739Z,1.00
2022-11-30T14:54:42.621Z,1.00
2022-11-30T14:57:18.993Z,1.00
2022-11-30T14:59:51.708Z,0.90
2022-11-30T15:02:38.957Z,1.00
2022-11-30T15:05:08.292Z,1.60
2022-11-30T15:07:36.350Z,1.00
2022-11-30T15:10:07.472Z,2.40
2022-11-30T15:12:35.402Z,1.00
2022-11-30T15:15:17.395Z,1.00
2022-11-30T15:17:52.057Z,1.00
2022-11-30T15:20:28.341Z,1.00
2022-11-30T15:22:58.055Z,0.90
2022-11-30T15:25:30.303Z,0.90
2022-11-30T15:27:58.512Z,0.90
2022-11-30T15:30:25.405Z,0.90
2022-11-30T15:32:53.162Z,0.80
2022-11-30T15:35:34.290Z,0.80
2022-11-30T15:38:09.073Z,0.90
2022-11-30T15:40:36.278Z,0.80
2022-11-30T15:43:03.158Z,0.80
2022-11-30T15:45:36.232Z,0.70
2022-11-30T15:48:23.756Z,0.80
2022-11-30T15:50:50.586Z,0.80
2022-11-30T15:53:34.924Z,0.70
2022-11-30T15:56:09.133Z,0.70
2022-11-30T15:58:58.821Z,0.80
2022-11-30T16:01:26.527Z,0.80
2022-11-30T16:03:56.110Z,0.70
2022-11-30T16:06:25.225Z,0.80
2022-11-30T16:08:52.809Z,0.70
2022-11-30T16:11:20.261Z,0.70
2022-11-30T16:13:47.752Z,0.70
2022-11-30T16:16:19.824Z,0.80
2022-11-30T16:18:47.243Z,0.80
2022-11-30T16:21:17.078Z,0.70
2022-11-30T16:23:43.881Z,0.70
2022-11-30T16:26:23.069Z,1.50
2022-11-30T16:28:59.214Z,0.70
2022-11-30T16:31:26.028Z,2.40
2022-11-30T16:33:52.769Z,0.70
2022-11-30T16:36:21.151Z,0.60
2022-11-30T16:38:52.925Z,0.60
2022-11-30T16:41:25.053Z,0.70
2022-11-30T16:43:56.414Z,0.70
2022-11-30T16:46:25.636Z,0.70
2022-11-30T16:48:53.428Z,0.70
2022-11-30T16:51:27.494Z,0.60
2022-11-30T16:53:54.966Z,0.60
2022-11-30T16:56:21.762Z,0.70
2022-11-30T16:58:48.540Z,0.60
2022-11-30T17:01:35.748Z,0.60
2022-11-30T17:04:12.054Z,0.60
2022-11-30T17:06:38.997Z,0.50
2022-11-30T17:09:06.006Z,0.60
2022-11-30T17:11:35.010Z,0.50
2022-11-30T17:14:01.876Z,0.50
2022-11-30T17:16:28.611Z,0.50
2022-11-30T17:18:55.399Z,0.50
2022-11-30T17:21:30.968Z,0.50
2022-11-30T17:23:58.521Z,0.50
2022-11-30T17:26:26.162Z,0.50
2022-11-30T17:28:53.163Z,0.50
2022-11-30T17:31:20.472Z,0.50
2022-11-30T17:33:48.587Z,0.50
2022-11-30T17:36:16.760Z,0.50
2022-11-30T17:38:44.196Z,0.50
2022-11-30T17:41:19.278Z,0.50
2022-11-30T17:43:47.627Z,0.50
2022-11-30T17:46:16.277Z,0.50
2022-11-30T17:48:44.207Z,0.60
2022-11-30T17:51:11.963Z,0.50
2022-11-30T17:53:39.970Z,-1.10
2022-11-30T17:56:12.432Z,0.60
2022-11-30T17:58:43.908Z,0.60
2022-11-30T18:01:25.275Z,0.60
2022-11-30T18:03:53.036Z,0.60
2022-11-30T18:06:20.293Z,0.50
2022-11-30T18:08:47.000Z,0.60
2022-11-30T18:11:21.165Z,0.50
2022-11-30T18:13:48.748Z,0.60
2022-11-30T18:16:18.278Z,0.50
2022-11-30T18:18:48.183Z,0.50
2022-11-30T18:21:20.344Z,0.50
2022-11-30T18:23:47.963Z,0.50
2022-11-30T18:26:17.922Z,0.50
2022-11-30T18:28:45.273Z,0.50
2022-11-30T18:31:12.325Z,0.40
2022-11-30T18:33:39.160Z,0.40
2022-11-30T18:36:07.695Z,0.50
2022-11-30T18:38:38.330Z,0.50
2022-11-30T18:41:06.453Z,0.50
2022-11-30T18:43:35.059Z,0.50
2022-11-30T18:46:07.145Z,0.50
2022-11-30T18:48:34.417Z,0.50
2022-11-30T18:51:13.923Z,0.40
2022-11-30T18:53:41.432Z,0.40
2022-11-30T18:56:10.273Z,0.50
2022-11-30T18:58:37.025Z,0.50
2022-11-30T19:01:09.266Z,0.50
2022-11-30T19:03:37.876Z,0.50
2022-11-30T19:06:06.411Z,0.50
2022-11-30T19:08:33.569Z,0.50
2022-11-30T19:11:05.729Z,0.40
2022-11-30T19:13:33.279Z,0.40
2022-11-30T19:16:05.913Z,0.40
2022-11-30T19:18:33.421Z,0.40
2022-11-30T19:21:00.276Z,0.40
2022-11-30T19:23:26.993Z,0.40
2022-11-30T19:25:58.721Z,0.50
2022-11-30T19:28:25.481Z,0.50
2022-11-30T19:30:52.250Z,0.50
2022-11-30T19:33:19.007Z,0.50
2022-11-30T19:35:45.739Z,0.50
2022-11-30T19:38:12.516Z,0.60
2022-11-30T19:40:39.307Z,0.60
2022-11-30T19:43:06.128Z,0.60
2022-11-30T19:45:34.697Z,0.60
2022-11-30T19:48:01.504Z,0.60
2022-11-30T19:50:29.018Z,0.60
2022-11-30T19:52:55.730Z,0.60
2022-11-30T19:55:22.487Z,0.60
2022-11-30T19:57:49.233Z,0.60
2022-11-30T20:00:16.371Z,0.70
2022-11-30T20:02:43.086Z,0.60
2022-11-30T20:05:09.898Z,0.60
2022-11-30T20:07:36.779Z,0.60
2022-11-30T20:10:03.901Z,0.90
2022-11-30T20:12:30.714Z,0.60
2022-11-30T20:14:57.630Z,0.60
2022-11-30T20:17:24.321Z,0.60
2022-11-30T20:19:51.307Z,0.70
2022-11-30T20:22:18.634Z,0.70
2022-11-30T20:24:51.151Z,0.70
2022-11-30T20:27:23.541Z,0.70
2022-11-30T20:29:52.724Z,0.70
2022-11-30T20:32:22.715Z,0.70
2022-11-30T20:34:52.538Z,0.70
2022-11-30T20:37:19.289Z,0.70
2022-11-30T20:39:46.453Z,0.80
2022-11-30T20:42:13.475Z,0.70
2022-11-30T20:44:40.128Z,0.70
2022-11-30T20:47:06.907Z,0.80
2022-11-30T20:49:33.734Z,0.80
2022-11-30T20:52:00.406Z,0.80
2022-11-30T20:54:29.840Z,0.70
2022-11-30T20:56:58.785Z,0.70
2022-11-30T20:59:26.748Z,0.70
2022-11-30T21:01:55.551Z,0.70
2022-11-30T21:04:24.779Z,0.70
2022-11-30T21:06:54.870Z,0.70
2022-11-30T21:09:24.522Z,0.70
2022-11-30T21:11:51.168Z,0.80
2022-11-30T21:14:18.064Z,0.80
2022-11-30T21:16:47.831Z,0.80
2022-11-30T21:19:15.386Z,0.80
2022-11-30T21:21:42.180Z,0.80
2022-11-30T21:24:11.156Z,0.80
2022-11-30T21:26:39.974Z,0.70
2022-11-30T21:29:16.000Z,0.70
2022-11-30T21:31:44.739Z,0.70
2022-11-30T21:34:11.602Z,0.70
2022-11-30T21:36:38.733Z,0.70
2022-11-30T21:39:09.225Z,0.70
2022-11-30T21:41:38.285Z,0.70
2022-11-30T21:44:06.236Z,0.70
2022-11-30T21:46:33.794Z,0.70
2022-11-30T21:49:01.003Z,0.70
2022-11-30T21:51:29.688Z,0.70
2022-11-30T21:53:58.585Z,0.70
2022-11-30T21:56:27.968Z,0.70
2022-11-30T21:58:55.450Z,0.70
2022-11-30T22:01:30.358Z,0.70
2022-11-30T22:04:01.878Z,0.70
2022-11-30T22:06:30.474Z,0.70
2022-11-30T22:09:03.391Z,0.70
2022-11-30T22:11:31.312Z,0.70
2022-11-30T22:13:58.089Z,0.70
2022-11-30T22:16:29.910Z,0.70
2022-11-30T22:19:01.238Z,0.60
2022-11-30T22:21:29.942Z,0.60
2022-11-30T22:24:05.113Z,0.60
2022-11-30T22:26:43.182Z,0.50
2022-11-30T22:29:14.670Z,0.60
2022-11-30T22:31:43.473Z,0.60
2022-11-30T22:34:10.780Z,0.60
2022-11-30T22:36:39.721Z,0.60
2022-11-30T22:39:20.537Z,0.60
2022-11-30T22:41:54.211Z,0.60
2022-11-30T22:44:22.237Z,0.70
2022-11-30T22:46:49.028Z,0.70
2022-11-30T22:49:21.301Z,0.70
2022-11-30T22:51:49.068Z,0.70
2022-11-30T22:54:15.825Z,0.70
2022-11-30T22:56:42.714Z,0.70
2022-11-30T22:59:13.499Z,0.70
2022-11-30T23:01:44.634Z,0.70
2022-11-30T23:04:14.387Z,0.70
2022-11-30T23:06:42.771Z,0.70
2022-11-30T23:09:13.730Z,0.70
2022-11-30T23:11:41.293Z,0.80
2022-11-30T23:14:08.978Z,0.80
2022-11-30T23:16:37.081Z,0.80
2022-11-30T23:19:05.292Z,0.80
2022-11-30T23:21:41.657Z,0.80
2022-11-30T23:24:12.170Z,0.80
2022-11-30T23:26:39.318Z,0.80
2022-11-30T23:29:10.079Z,0.80
2022-11-30T23:31:39.253Z,0.80
2022-11-30T23:34:08.969Z,0.80
2022-11-30T23:36:36.510Z,0.80
2022-11-30T23:39:15.614Z,0.80
2022-11-30T23:41:43.168Z,0.80
2022-11-30T23:44:10.609Z,-0.70
2022-11-30T23:46:37.855Z,0.80
2022-11-30T23:49:04.905Z,0.80
2022-11-30T23:51:31.820Z,0.90
2022-11-30T23:53:58.712Z,0.90
2022-11-30T23:56:25.616Z,0.90
2022-11-30T23:58:52.756Z,0.90
